Flight Track Log - Related Links

Times and Time Zones

All times are in EDT time to prevent confusion due to time zone crossing. See the RPA3143 flight status page for this flight to view local times or setup timezone preferences in your user account.

Time Position Orientation Groundspeed Altitude Reporting Facility
EDT Latitude Longitude Course Direction KTS MPH feet Rate Location/Type
Wed 06:01:23 AM 40.5044 -80.2881 161° South 160 184 2,900  Level Cleveland Center
Wed 06:02:23 AM 40.4672 -80.3131 207° Southwest 181 208 4,700 2,550 Climbing Cleveland Center
Wed 06:03:00 AM 40.3314 -79.9062 164° South  Level Estimated
Wed 06:03:23 AM 40.4003 -80.2806 160° South 196 226 8,000  Level Cleveland Center
Wed 06:04:00 AM 40.2778 -79.7976 162° South  Level Estimated
Wed 06:04:23 AM 40.3167 -80.2344 157° South 253 291 11,100  Level Cleveland Center
Wed 06:05:00 AM 40.1951 -79.8680 213° Southwest  Level FlightAware Approximate
Wed 06:05:23 AM 40.2353 -80.1942 159° South 299 344 13,800  Level Cleveland Center
Wed 06:06:00 AM 40.1447 -79.7571 161° South  Level Estimated
Wed 06:06:23 AM 40.1433 -80.1486 159° South 334 384 19,000  Level Cleveland Center
Wed 06:07:23 AM 40.0475 -80.1031 160° South 354 407 18,400 682 Descending Cleveland Center
Wed 06:09:19 AM 39.8517 -80.0078 160° South 371 427 21,000 881 Climbing Washington Center
Wed 06:10:20 AM 39.7533 -79.9561 158° South 377 434 21,000  Level Washington Center
Wed 06:11:21 AM 39.6508 -79.9094 161° South 384 442 21,000  Level Washington Center
Wed 06:12:21 AM 39.5483 -79.8628 161° South 384 442 21,000  Level Washington Center
Wed 06:13:21 AM 39.4428 -79.8431 172° South 384 442 21,000  Level Washington Center
Wed 06:14:19 AM 39.3644 -79.7553 139° Southeast 373 429 21,000  Level Washington Center
Wed 06:15:20 AM 39.3422 -79.6144 101° East 356 410 21,000  Level Washington Center
Wed 06:16:18 AM 39.3175 -79.4761 103° East 361 415 21,000  Level Washington Center
Wed 06:17:20 AM 39.2931 -79.3356 103° East 384 442 21,000  Level Washington Center
Wed 06:18:20 AM 39.2656 -79.2106 106° East 389 448 21,000  Level Washington Center
Wed 06:19:18 AM 39.2406 -79.0675 103° East 400 460 21,000  Level Washington Center
Wed 06:20:19 AM 39.2194 -78.9297 101° East 400 460 21,000  Level Washington Center
Wed 06:21:20 AM 39.2044 -78.7897 98° East 395 455 21,000 -50 Level Washington Center
Wed 06:22:20 AM 39.1917 -78.6447 96° East 395 455 20,900 -1,100 Descending Washington Center
Wed 06:23:20 AM 39.1761 -78.5047 98° East 395 455 18,800 -1,983 Descending Washington Center
Wed 06:24:18 AM 39.1608 -78.3675 98° East 389 448 17,000 -900 Descending Washington Center
Wed 06:25:20 AM 39.1322 -78.2406 106° East 379 436 17,000  Level Washington Center
Wed 06:26:21 AM 39.0997 -78.1111 108° East 374 430 17,000 -857 Level Washington Center
Wed 06:27:19 AM 39.0669 -77.9844 108° East 374 430 15,300 -2,000 Descending Washington Center
Wed 06:28:18 AM 39.0339 -77.8550 108° East 357 411 13,100 -1,900 Descending Washington Center
Wed 06:29:19 AM 39.0047 -77.7419 108° East 341 392 11,500 -1,700 Descending Washington Center
Wed 06:30:18 AM 38.9775 -77.6317 108° East 327 376 9,700 -1,600 Descending Washington Center
Wed 06:31:19 AM 38.9478 -77.5294 110° East 316 364 8,300 -1,119 Descending Washington Center
Wed 06:32:32 AM 38.9833 -77.4167 68° East 262 302 7,200 -812 Descending Potomac TRACON
Wed 06:33:32 AM 39.0167 -77.3333 63° Northeast 235 270 6,500 -1,050 Descending Potomac TRACON
Wed 06:34:32 AM 39.0333 -77.2667 72° East 225 259 5,100 -1,474 Descending Potomac TRACON
Wed 06:35:26 AM 39.0000 -77.2167 131° Southeast 211 243 3,700 -1,105 Descending Potomac TRACON
Wed 06:36:26 AM 38.9667 -77.1500 123° Southeast 187 215 3,000 -700 Descending Potomac TRACON

Login

Don't have an account? Register now (free) for customized features, flight alerts, and more!